sensor_id;sensor_type;location;lat;lon;timestamp;P1;durP1;ratioP1;P2;durP2;ratioP2
22606;SDS011;11470;20.968;105.834;2023-02-12T00:02:55;28.48;;;17.35;;
22606;SDS011;11470;20.968;105.834;2023-02-12T00:08:05;86.78;;;46.90;;
22606;SDS011;11470;20.968;105.834;2023-02-12T00:13:12;58.38;;;34.78;;
22606;SDS011;11470;20.968;105.834;2023-02-12T00:18:18;79.25;;;43.50;;
22606;SDS011;11470;20.968;105.834;2023-02-12T00:23:24;67.97;;;38.80;;
22606;SDS011;11470;20.968;105.834;2023-02-12T00:28:31;48.20;;;28.33;;
22606;SDS011;11470;20.968;105.834;2023-02-12T00:33:38;50.25;;;30.10;;
22606;SDS011;11470;20.968;105.834;2023-02-12T00:38:45;65.20;;;37.38;;
22606;SDS011;11470;20.968;105.834;2023-02-12T00:43:52;77.60;;;45.28;;
22606;SDS011;11470;20.968;105.834;2023-02-12T00:48:58;63.67;;;37.05;;
22606;SDS011;11470;20.968;105.834;2023-02-12T00:54:04;61.97;;;35.13;;
22606;SDS011;11470;20.968;105.834;2023-02-12T00:59:11;61.33;;;35.30;;
22606;SDS011;11470;20.968;105.834;2023-02-12T01:09:22;71.82;;;41.90;;
22606;SDS011;11470;20.968;105.834;2023-02-12T01:14:28;76.97;;;44.50;;
22606;SDS011;11470;20.968;105.834;2023-02-12T01:19:34;62.47;;;38.35;;
22606;SDS011;11470;20.968;105.834;2023-02-12T01:24:41;91.13;;;49.97;;
22606;SDS011;11470;20.968;105.834;2023-02-12T01:29:47;70.75;;;43.15;;
22606;SDS011;11470;20.968;105.834;2023-02-12T01:34:55;64.78;;;37.80;;
22606;SDS011;11470;20.968;105.834;2023-02-12T01:40:02;53.25;;;32.47;;
22606;SDS011;11470;20.968;105.834;2023-02-12T01:50:21;47.13;;;28.77;;
22606;SDS011;11470;20.968;105.834;2023-02-12T01:55:29;65.88;;;39.78;;
22606;SDS011;11470;20.968;105.834;2023-02-12T02:00:37;68.63;;;43.88;;
22606;SDS011;11470;20.968;105.834;2023-02-12T02:05:46;53.78;;;33.65;;
22606;SDS011;11470;20.968;105.834;2023-02-12T02:11:05;56.50;;;34.33;;
22606;SDS011;11470;20.968;105.834;2023-02-12T02:16:34;58.55;;;32.92;;
22606;SDS011;11470;20.968;105.834;2023-02-12T02:21:56;40.55;;;23.50;;
22606;SDS011;11470;20.968;105.834;2023-02-12T02:27:23;64.35;;;40.92;;
22606;SDS011;11470;20.968;105.834;2023-02-12T02:33:00;62.47;;;36.95;;
22606;SDS011;11470;20.968;105.834;2023-02-12T02:39:54;59.33;;;34.42;;
22606;SDS011;11470;20.968;105.834;2023-02-12T02:50:30;72.05;;;43.80;;
22606;SDS011;11470;20.968;105.834;2023-02-12T03:01:19;68.70;;;39.63;;
22606;SDS011;11470;20.968;105.834;2023-02-12T03:06:37;68.03;;;42.38;;
22606;SDS011;11470;20.968;105.834;2023-02-12T03:25:22;67.60;;;40.47;;
22606;SDS011;11470;20.968;105.834;2023-02-12T03:41:33;68.70;;;41.63;;
22606;SDS011;11470;20.968;105.834;2023-02-12T03:47:01;59.50;;;34.20;;
22606;SDS011;11470;20.968;105.834;2023-02-12T03:52:19;60.72;;;36.35;;
22606;SDS011;11470;20.968;105.834;2023-02-12T04:02:33;56.90;;;32.78;;
22606;SDS011;11470;20.968;105.834;2023-02-12T04:07:39;56.05;;;34.45;;
22606;SDS011;11470;20.968;105.834;2023-02-12T04:12:53;57.87;;;38.27;;
22606;SDS011;11470;20.968;105.834;2023-02-12T04:34:33;68.63;;;45.70;;
22606;SDS011;11470;20.968;105.834;2023-02-12T04:40:03;65.00;;;42.63;;
22606;SDS011;11470;20.968;105.834;2023-02-12T04:45:11;74.32;;;47.22;;
22606;SDS011;11470;20.968;105.834;2023-02-12T04:50:22;71.82;;;45.95;;
22606;SDS011;11470;20.968;105.834;2023-02-12T04:55:28;74.65;;;41.70;;
22606;SDS011;11470;20.968;105.834;2023-02-12T05:00:35;73.67;;;47.60;;
22606;SDS011;11470;20.968;105.834;2023-02-12T05:05:47;66.38;;;41.88;;
22606;SDS011;11470;20.968;105.834;2023-02-12T05:11:12;72.78;;;46.70;;
22606;SDS011;11470;20.968;105.834;2023-02-12T05:16:17;68.33;;;44.60;;
22606;SDS011;11470;20.968;105.834;2023-02-12T05:21:27;78.68;;;48.72;;
22606;SDS011;11470;20.968;105.834;2023-02-12T05:26:33;72.67;;;48.33;;
22606;SDS011;11470;20.968;105.834;2023-02-12T05:31:40;55.83;;;41.75;;
22606;SDS011;11470;20.968;105.834;2023-02-12T05:36:45;71.25;;;46.67;;
22606;SDS011;11470;20.968;105.834;2023-02-12T05:41:51;66.72;;;46.45;;
22606;SDS011;11470;20.968;105.834;2023-02-12T05:46:56;69.33;;;47.90;;
22606;SDS011;11470;20.968;105.834;2023-02-12T05:52:02;57.97;;;42.13;;
22606;SDS011;11470;20.968;105.834;2023-02-12T05:57:07;62.97;;;42.63;;
22606;SDS011;11470;20.968;105.834;2023-02-12T06:02:13;58.30;;;42.10;;
22606;SDS011;11470;20.968;105.834;2023-02-12T06:07:19;58.30;;;43.05;;
22606;SDS011;11470;20.968;105.834;2023-02-12T06:12:29;58.05;;;41.55;;
22606;SDS011;11470;20.968;105.834;2023-02-12T06:17:54;56.53;;;42.90;;
22606;SDS011;11470;20.968;105.834;2023-02-12T06:22:59;59.30;;;44.43;;
22606;SDS011;11470;20.968;105.834;2023-02-12T06:35:34;62.88;;;46.72;;
22606;SDS011;11470;20.968;105.834;2023-02-12T06:40:41;63.97;;;48.33;;
22606;SDS011;11470;20.968;105.834;2023-02-12T06:45:50;58.92;;;44.88;;
22606;SDS011;11470;20.968;105.834;2023-02-12T06:50:55;72.00;;;51.03;;
22606;SDS011;11470;20.968;105.834;2023-02-12T07:14:40;68.53;;;48.70;;
22606;SDS011;11470;20.968;105.834;2023-02-12T07:19:52;74.70;;;51.72;;
22606;SDS011;11470;20.968;105.834;2023-02-12T07:25:00;81.57;;;55.17;;
22606;SDS011;11470;20.968;105.834;2023-02-12T07:30:05;79.93;;;56.37;;
22606;SDS011;11470;20.968;105.834;2023-02-12T07:35:11;80.90;;;57.05;;
22606;SDS011;11470;20.968;105.834;2023-02-12T07:40:17;64.03;;;46.77;;
22606;SDS011;11470;20.968;105.834;2023-02-12T07:45:26;75.32;;;54.85;;
22606;SDS011;11470;20.968;105.834;2023-02-12T07:50:36;74.35;;;53.35;;
22606;SDS011;11470;20.968;105.834;2023-02-12T08:02:51;68.88;;;52.08;;
22606;SDS011;11470;20.968;105.834;2023-02-12T08:13:02;66.00;;;44.13;;
22606;SDS011;11470;20.968;105.834;2023-02-12T08:18:11;75.22;;;54.17;;
22606;SDS011;11470;20.968;105.834;2023-02-12T08:23:16;79.25;;;55.42;;
22606;SDS011;11470;20.968;105.834;2023-02-12T08:28:36;72.93;;;53.88;;
22606;SDS011;11470;20.968;105.834;2023-02-12T08:33:52;76.47;;;54.40;;
22606;SDS011;11470;20.968;105.834;2023-02-12T08:38:59;74.88;;;55.50;;
22606;SDS011;11470;20.968;105.834;2023-02-12T08:44:07;81.20;;;56.25;;
22606;SDS011;11470;20.968;105.834;2023-02-12T08:49:17;81.15;;;58.22;;
22606;SDS011;11470;20.968;105.834;2023-02-12T08:54:28;62.40;;;45.58;;
22606;SDS011;11470;20.968;105.834;2023-02-12T08:59:35;71.40;;;53.03;;
22606;SDS011;11470;20.968;105.834;2023-02-12T09:04:40;61.15;;;45.10;;
22606;SDS011;11470;20.968;105.834;2023-02-12T09:09:46;70.07;;;51.47;;
22606;SDS011;11470;20.968;105.834;2023-02-12T09:14:51;67.82;;;51.08;;
22606;SDS011;11470;20.968;105.834;2023-02-12T09:19:57;72.15;;;52.33;;
22606;SDS011;11470;20.968;105.834;2023-02-12T09:25:04;75.05;;;53.78;;
22606;SDS011;11470;20.968;105.834;2023-02-12T09:30:11;76.85;;;56.25;;
22606;SDS011;11470;20.968;105.834;2023-02-12T09:35:19;70.93;;;53.28;;
22606;SDS011;11470;20.968;105.834;2023-02-12T09:45:52;57.47;;;29.98;;
22606;SDS011;11470;20.968;105.834;2023-02-12T09:51:18;79.60;;;54.05;;
22606;SDS011;11470;20.968;105.834;2023-02-12T09:56:42;76.07;;;55.40;;
22606;SDS011;11470;20.968;105.834;2023-02-12T10:02:13;65.00;;;51.40;;
22606;SDS011;11470;20.968;105.834;2023-02-12T10:12:38;71.88;;;53.20;;
22606;SDS011;11470;20.968;105.834;2023-02-12T10:18:15;72.30;;;51.78;;
22606;SDS011;11470;20.968;105.834;2023-02-12T10:23:34;81.30;;;54.70;;
22606;SDS011;11470;20.968;105.834;2023-02-12T10:28:49;75.20;;;54.00;;
22606;SDS011;11470;20.968;105.834;2023-02-12T10:33:56;72.80;;;51.72;;
22606;SDS011;11470;20.968;105.834;2023-02-12T10:44:18;72.30;;;47.88;;
22606;SDS011;11470;20.968;105.834;2023-02-12T10:49:24;79.47;;;48.97;;
22606;SDS011;11470;20.968;105.834;2023-02-12T10:54:31;80.97;;;56.10;;
22606;SDS011;11470;20.968;105.834;2023-02-12T10:59:48;83.13;;;56.42;;
22606;SDS011;11470;20.968;105.834;2023-02-12T11:04:57;91.80;;;59.20;;
22606;SDS011;11470;20.968;105.834;2023-02-12T11:10:04;86.60;;;60.22;;
22606;SDS011;11470;20.968;105.834;2023-02-12T11:15:31;100.38;;;68.45;;
22606;SDS011;11470;20.968;105.834;2023-02-12T11:20:53;88.88;;;58.17;;
22606;SDS011;11470;20.968;105.834;2023-02-12T11:26:23;99.55;;;64.32;;
22606;SDS011;11470;20.968;105.834;2023-02-12T11:31:38;94.22;;;61.75;;
22606;SDS011;11470;20.968;105.834;2023-02-12T11:36:48;95.03;;;65.20;;
22606;SDS011;11470;20.968;105.834;2023-02-12T11:42:00;98.00;;;65.25;;
22606;SDS011;11470;20.968;105.834;2023-02-12T11:47:08;103.65;;;72.90;;
22606;SDS011;11470;20.968;105.834;2023-02-12T11:52:22;145.32;;;103.57;;
22606;SDS011;11470;20.968;105.834;2023-02-12T11:57:43;104.70;;;74.97;;
22606;SDS011;11470;20.968;105.834;2023-02-12T12:08:10;100.30;;;69.13;;
22606;SDS011;11470;20.968;105.834;2023-02-12T12:13:52;98.35;;;65.65;;
22606;SDS011;11470;20.968;105.834;2023-02-12T12:19:33;101.38;;;66.50;;
22606;SDS011;11470;20.968;105.834;2023-02-12T12:31:05;110.50;;;70.13;;
22606;SDS011;11470;20.968;105.834;2023-02-12T12:36:54;107.75;;;71.13;;
22606;SDS011;11470;20.968;105.834;2023-02-12T12:42:36;112.80;;;71.60;;
22606;SDS011;11470;20.968;105.834;2023-02-12T13:27:36;114.30;;;68.90;;
22606;SDS011;11470;20.968;105.834;2023-02-12T13:33:17;119.37;;;65.43;;
22606;SDS011;11470;20.968;105.834;2023-02-12T13:45:01;102.90;;;56.75;;
22606;SDS011;11470;20.968;105.834;2023-02-12T13:56:36;118.07;;;68.13;;
22606;SDS011;11470;20.968;105.834;2023-02-12T14:03:10;110.85;;;63.45;;
22606;SDS011;11470;20.968;105.834;2023-02-12T14:08:26;115.35;;;69.43;;
22606;SDS011;11470;20.968;105.834;2023-02-12T14:14:37;121.68;;;69.88;;
22606;SDS011;11470;20.968;105.834;2023-02-12T14:56:31;95.05;;;59.63;;
22606;SDS011;11470;20.968;105.834;2023-02-12T15:02:01;81.82;;;53.17;;
22606;SDS011;11470;20.968;105.834;2023-02-12T15:07:43;100.07;;;59.47;;
22606;SDS011;11470;20.968;105.834;2023-02-12T15:24:20;100.40;;;52.00;;
22606;SDS011;11470;20.968;105.834;2023-02-12T15:29:35;108.75;;;57.17;;
22606;SDS011;11470;20.968;105.834;2023-02-12T15:34:49;102.40;;;60.50;;
22606;SDS011;11470;20.968;105.834;2023-02-12T15:39:59;94.00;;;58.55;;
22606;SDS011;11470;20.968;105.834;2023-02-12T15:51:08;87.32;;;58.45;;
22606;SDS011;11470;20.968;105.834;2023-02-12T15:56:31;88.40;;;58.60;;
22606;SDS011;11470;20.968;105.834;2023-02-12T16:01:39;94.10;;;59.80;;
22606;SDS011;11470;20.968;105.834;2023-02-12T16:06:58;102.13;;;62.55;;
22606;SDS011;11470;20.968;105.834;2023-02-12T16:12:06;95.72;;;56.70;;
22606;SDS011;11470;20.968;105.834;2023-02-12T16:17:30;97.50;;;62.53;;
22606;SDS011;11470;20.968;105.834;2023-02-12T16:22:39;99.10;;;61.72;;
22606;SDS011;11470;20.968;105.834;2023-02-12T16:28:03;94.25;;;60.88;;
22606;SDS011;11470;20.968;105.834;2023-02-12T16:33:31;93.20;;;60.15;;
22606;SDS011;11470;20.968;105.834;2023-02-12T16:38:48;85.18;;;57.60;;
22606;SDS011;11470;20.968;105.834;2023-02-12T16:49:15;85.78;;;53.47;;
22606;SDS011;11470;20.968;105.834;2023-02-12T16:54:33;89.18;;;55.85;;
22606;SDS011;11470;20.968;105.834;2023-02-12T16:59:40;89.32;;;53.42;;
22606;SDS011;11470;20.968;105.834;2023-02-12T17:04:48;84.15;;;53.97;;
22606;SDS011;11470;20.968;105.834;2023-02-12T17:09:57;86.60;;;54.80;;
22606;SDS011;11470;20.968;105.834;2023-02-12T17:15:04;81.10;;;52.03;;
22606;SDS011;11470;20.968;105.834;2023-02-12T17:20:11;81.47;;;49.95;;
22606;SDS011;11470;20.968;105.834;2023-02-12T17:25:18;81.70;;;48.92;;
22606;SDS011;11470;20.968;105.834;2023-02-12T17:35:31;76.72;;;50.67;;
22606;SDS011;11470;20.968;105.834;2023-02-12T17:40:38;78.43;;;50.47;;
22606;SDS011;11470;20.968;105.834;2023-02-12T17:45:44;73.28;;;45.97;;
22606;SDS011;11470;20.968;105.834;2023-02-12T17:50:54;67.18;;;42.47;;
22606;SDS011;11470;20.968;105.834;2023-02-12T17:56:03;71.40;;;46.42;;
22606;SDS011;11470;20.968;105.834;2023-02-12T18:01:14;74.72;;;46.03;;
22606;SDS011;11470;20.968;105.834;2023-02-12T18:06:26;60.42;;;38.42;;
22606;SDS011;11470;20.968;105.834;2023-02-12T18:11:37;69.60;;;44.92;;
22606;SDS011;11470;20.968;105.834;2023-02-12T18:16:45;72.80;;;43.47;;
22606;SDS011;11470;20.968;105.834;2023-02-12T18:21:52;55.40;;;36.53;;
22606;SDS011;11470;20.968;105.834;2023-02-12T18:26:58;66.70;;;43.25;;
22606;SDS011;11470;20.968;105.834;2023-02-12T18:32:06;57.35;;;36.17;;
22606;SDS011;11470;20.968;105.834;2023-02-12T18:37:17;62.72;;;42.08;;
22606;SDS011;11470;20.968;105.834;2023-02-12T18:42:24;59.80;;;41.10;;
22606;SDS011;11470;20.968;105.834;2023-02-12T18:47:31;70.03;;;44.10;;
22606;SDS011;11470;20.968;105.834;2023-02-12T18:58:00;61.65;;;39.35;;
22606;SDS011;11470;20.968;105.834;2023-02-12T19:03:05;54.42;;;35.00;;
22606;SDS011;11470;20.968;105.834;2023-02-12T19:13:17;52.13;;;34.83;;
22606;SDS011;11470;20.968;105.834;2023-02-12T19:18:23;54.22;;;35.65;;
22606;SDS011;11470;20.968;105.834;2023-02-12T19:28:35;50.63;;;37.97;;
22606;SDS011;11470;20.968;105.834;2023-02-12T19:33:45;71.13;;;44.58;;
22606;SDS011;11470;20.968;105.834;2023-02-12T19:38:51;59.13;;;37.90;;
22606;SDS011;11470;20.968;105.834;2023-02-12T19:43:59;42.45;;;31.25;;
22606;SDS011;11470;20.968;105.834;2023-02-12T19:49:06;45.50;;;31.90;;
22606;SDS011;11470;20.968;105.834;2023-02-12T19:54:16;49.75;;;33.90;;
22606;SDS011;11470;20.968;105.834;2023-02-12T19:59:23;45.83;;;32.03;;
22606;SDS011;11470;20.968;105.834;2023-02-12T20:04:30;47.40;;;30.63;;
22606;SDS011;11470;20.968;105.834;2023-02-12T20:09:37;54.45;;;37.30;;
22606;SDS011;11470;20.968;105.834;2023-02-12T20:14:58;46.20;;;33.17;;
22606;SDS011;11470;20.968;105.834;2023-02-12T20:20:06;55.92;;;35.78;;
22606;SDS011;11470;20.968;105.834;2023-02-12T20:25:13;52.15;;;33.75;;
22606;SDS011;11470;20.968;105.834;2023-02-12T20:30:19;47.10;;;33.15;;
22606;SDS011;11470;20.968;105.834;2023-02-12T20:35:25;46.78;;;33.95;;
22606;SDS011;11470;20.968;105.834;2023-02-12T20:40:32;46.58;;;30.85;;
22606;SDS011;11470;20.968;105.834;2023-02-12T20:45:38;49.47;;;32.45;;
22606;SDS011;11470;20.968;105.834;2023-02-12T20:50:44;49.42;;;29.02;;
22606;SDS011;11470;20.968;105.834;2023-02-12T21:01:18;43.45;;;30.55;;
22606;SDS011;11470;20.968;105.834;2023-02-12T21:06:24;48.80;;;28.15;;
22606;SDS011;11470;20.968;105.834;2023-02-12T21:16:37;41.42;;;28.77;;
22606;SDS011;11470;20.968;105.834;2023-02-12T21:21:50;42.45;;;26.73;;
22606;SDS011;11470;20.968;105.834;2023-02-12T21:26:56;43.50;;;27.10;;
22606;SDS011;11470;20.968;105.834;2023-02-12T21:37:08;55.00;;;32.85;;
22606;SDS011;11470;20.968;105.834;2023-02-12T21:42:14;47.03;;;30.23;;
22606;SDS011;11470;20.968;105.834;2023-02-12T21:47:19;42.53;;;32.13;;
22606;SDS011;11470;20.968;105.834;2023-02-12T21:52:26;52.88;;;34.00;;
22606;SDS011;11470;20.968;105.834;2023-02-12T21:57:32;55.67;;;33.28;;
22606;SDS011;11470;20.968;105.834;2023-02-12T22:02:37;50.92;;;32.53;;
22606;SDS011;11470;20.968;105.834;2023-02-12T22:07:46;44.85;;;28.02;;
22606;SDS011;11470;20.968;105.834;2023-02-12T22:12:54;44.88;;;29.70;;
22606;SDS011;11470;20.968;105.834;2023-02-12T22:18:01;44.25;;;30.98;;
22606;SDS011;11470;20.968;105.834;2023-02-12T22:28:12;48.47;;;27.70;;
22606;SDS011;11470;20.968;105.834;2023-02-12T22:33:18;47.42;;;27.02;;
22606;SDS011;11470;20.968;105.834;2023-02-12T22:38:26;42.20;;;28.33;;
22606;SDS011;11470;20.968;105.834;2023-02-12T22:43:33;44.47;;;26.52;;
22606;SDS011;11470;20.968;105.834;2023-02-12T22:48:40;43.97;;;29.15;;
22606;SDS011;11470;20.968;105.834;2023-02-12T22:53:47;40.75;;;26.25;;
22606;SDS011;11470;20.968;105.834;2023-02-12T22:58:54;44.47;;;24.90;;
22606;SDS011;11470;20.968;105.834;2023-02-12T23:04:01;41.42;;;24.95;;
22606;SDS011;11470;20.968;105.834;2023-02-12T23:09:08;44.25;;;23.67;;
22606;SDS011;11470;20.968;105.834;2023-02-12T23:14:18;45.28;;;26.70;;
22606;SDS011;11470;20.968;105.834;2023-02-12T23:19:24;48.88;;;28.98;;
22606;SDS011;11470;20.968;105.834;2023-02-12T23:24:30;49.78;;;26.77;;
22606;SDS011;11470;20.968;105.834;2023-02-12T23:29:36;52.13;;;26.35;;
22606;SDS011;11470;20.968;105.834;2023-02-12T23:34:43;51.17;;;26.80;;
22606;SDS011;11470;20.968;105.834;2023-02-12T23:39:49;43.45;;;23.50;;
22606;SDS011;11470;20.968;105.834;2023-02-12T23:45:13;47.97;;;26.92;;
22606;SDS011;11470;20.968;105.834;2023-02-12T23:50:35;47.78;;;26.58;;
22606;SDS011;11470;20.968;105.834;2023-02-12T23:55:41;50.80;;;27.55;;
